Time;durP1;ratioP1;P1;durP2;ratioP2;P2;SDS_P1;SDS_P2;PMS_P1;PMS_P2;Temp;Humidity;BMP_temperature;BMP_pressure;BME280_temperature;BME280_humidity;BME280_pressure;Samples;Min_cycle;Max_cycle;Signal;HPM_P1;HPM_P2
2021/07/17 00:00:44;;;;;;;42.22;20.33;;;;;;;;;;3589710;39;20011;-61
2021/07/17 00:03:09;;;;;;;37.50;21.20;;;;;;;;;;3590074;40;20040;-61
2021/07/17 00:05:35;;;;;;;32.80;19.67;;;;;;;;;;3590520;39;20109;-67
2021/07/17 00:08:00;;;;;;;33.93;20.20;;;;;;;;;;3590232;39;20031;-67
2021/07/17 00:10:25;;;;;;;36.88;19.50;;;;;;;;;;3590464;40;20105;-67
2021/07/17 00:12:50;;;;;;;36.90;19.27;;;;;;;;;;3590846;40;20040;-61
2021/07/17 00:15:16;;;;;;;30.47;19.03;;;;;;;;;;3588505;40;20036;-61
2021/07/17 00:17:41;;;;;;;42.43;19.30;;;;;;;;;;3590676;40;20500;-61
2021/07/17 00:20:06;;;;;;;37.33;19.93;;;;;;;;;;3588534;40;20282;-61
2021/07/17 00:22:31;;;;;;;32.57;17.90;;;;;;;;;;3590461;39;20024;-61
2021/07/17 00:24:56;;;;;;;30.60;18.30;;;;;;;;;;3590390;40;20028;-61
2021/07/17 00:27:22;;;;;;;32.50;18.57;;;;;;;;;;3590550;40;20040;-61
2021/07/17 00:29:47;;;;;;;33.63;17.73;;;;;;;;;;3590039;40;20028;-61
2021/07/17 00:32:12;;;;;;;27.13;16.88;;;;;;;;;;3580470;40;20015;-61
2021/07/17 00:34:37;;;;;;;35.45;17.48;;;;;;;;;;3590254;39;20063;-61
2021/07/17 00:37:03;;;;;;;31.60;17.23;;;;;;;;;;3588479;40;20054;-61
2021/07/17 00:39:28;;;;;;;35.40;18.20;;;;;;;;;;3590625;39;20368;-61
2021/07/17 00:41:53;;;;;;;27.40;16.57;;;;;;;;;;3590014;39;20027;-61
2021/07/17 00:44:19;;;;;;;30.77;17.73;;;;;;;;;;3589648;40;20078;-61
2021/07/17 00:46:44;;;;;;;36.27;17.17;;;;;;;;;;3590179;39;20405;-61
2021/07/17 00:49:09;;;;;;;29.30;16.90;;;;;;;;;;3589360;39;20242;-61
2021/07/17 00:51:35;;;;;;;28.77;16.30;;;;;;;;;;3588437;40;20109;-61
2021/07/17 00:54:00;;;;;;;36.37;17.30;;;;;;;;;;3586990;39;20258;-61
2021/07/17 00:56:25;;;;;;;26.03;16.40;;;;;;;;;;3589359;40;20155;-61
2021/07/17 00:58:50;;;;;;;34.93;15.70;;;;;;;;;;3589843;40;20272;-61
2021/07/17 01:01:16;;;;;;;35.60;17.00;;;;;;;;;;3589137;39;20028;-64
2021/07/17 01:03:41;;;;;;;27.73;15.37;;;;;;;;;;3589892;40;20302;-61
2021/07/17 01:06:06;;;;;;;28.20;15.33;;;;;;;;;;3589502;40;20039;-61
2021/07/17 01:08:31;;;;;;;30.73;15.47;;;;;;;;;;3588749;40;20082;-61
2021/07/17 01:10:56;;;;;;;33.40;15.87;;;;;;;;;;3589353;40;20108;-62
2021/07/17 01:13:22;;;;;;;36.73;14.57;;;;;;;;;;3588458;40;20125;-62
2021/07/17 01:15:47;;;;;;;33.17;15.17;;;;;;;;;;3589706;39;20714;-63
2021/07/17 01:18:12;;;;;;;29.67;14.83;;;;;;;;;;3588439;40;20172;-62
2021/07/17 01:20:38;;;;;;;24.17;13.82;;;;;;;;;;3588689;39;21079;-63
2021/07/17 01:23:03;;;;;;;29.50;16.27;;;;;;;;;;3589220;40;20032;-63
2021/07/17 01:25:28;;;;;;;34.17;14.60;;;;;;;;;;3589207;39;20981;-63
2021/07/17 01:27:53;;;;;;;34.00;13.48;;;;;;;;;;3589192;39;20020;-61
2021/07/17 01:30:19;;;;;;;27.60;13.97;;;;;;;;;;3589093;39;20032;-61
2021/07/17 01:32:44;;;;;;;28.52;13.88;;;;;;;;;;3587843;40;20085;-61
2021/07/17 01:35:09;;;;;;;34.63;15.87;;;;;;;;;;3587355;40;20117;-61
2021/07/17 01:37:34;;;;;;;29.33;13.80;;;;;;;;;;3589493;39;20060;-61
2021/07/17 01:40:03;;;;;;;33.17;14.47;;;;;;;;;;3588922;40;20409;-61
2021/07/17 01:42:29;;;;;;;27.45;13.68;;;;;;;;;;3587355;40;20987;-61
2021/07/17 01:44:54;;;;;;;34.70;13.63;;;;;;;;;;3589098;39;20080;-61
2021/07/17 01:47:19;;;;;;;40.10;14.77;;;;;;;;;;3588747;39;20070;-61
2021/07/17 01:49:44;;;;;;;32.70;13.77;;;;;;;;;;3589448;39;20341;-61
2021/07/17 01:52:09;;;;;;;42.57;14.07;;;;;;;;;;3587706;40;20325;-61
2021/07/17 01:54:35;;;;;;;34.00;13.70;;;;;;;;;;3589160;40;20288;-61
2021/07/17 01:57:00;;;;;;;27.63;12.60;;;;;;;;;;3589302;40;20402;-61
2021/07/17 01:59:25;;;;;;;35.13;14.17;;;;;;;;;;3588833;39;20040;-61
2021/07/17 02:01:50;;;;;;;45.40;14.50;;;;;;;;;;3588067;40;20032;-61
2021/07/17 02:04:15;;;;;;;45.30;13.53;;;;;;;;;;3587650;40;20400;-61
2021/07/17 02:06:43;;;;;;;33.70;13.15;;;;;;;;;;3587878;39;20040;-61
2021/07/17 02:09:08;;;;;;;31.00;13.07;;;;;;;;;;3590805;40;20021;-61
2021/07/17 02:11:33;;;;;;;33.93;13.53;;;;;;;;;;3590024;39;20024;-61
2021/07/17 02:13:58;;;;;;;40.70;14.50;;;;;;;;;;3590477;40;20085;-61
2021/07/17 02:16:23;;;;;;;35.43;13.67;;;;;;;;;;3589999;39;20274;-61
2021/07/17 02:18:49;;;;;;;34.90;13.87;;;;;;;;;;3590594;40;20024;-61
2021/07/17 02:21:14;;;;;;;32.43;14.23;;;;;;;;;;3590100;40;20060;-61
2021/07/17 02:23:39;;;;;;;40.93;15.20;;;;;;;;;;3590279;40;20396;-61
2021/07/17 02:26:04;;;;;;;34.83;13.60;;;;;;;;;;3590450;39;20262;-61
2021/07/17 02:28:30;;;;;;;39.47;14.55;;;;;;;;;;3589957;40;20555;-61
2021/07/17 02:30:55;;;;;;;29.67;14.17;;;;;;;;;;3589484;40;20731;-61
2021/07/17 02:33:20;;;;;;;46.97;14.73;;;;;;;;;;3591076;40;20262;-61
2021/07/17 02:35:45;;;;;;;34.10;14.00;;;;;;;;;;3590473;40;20039;-61
2021/07/17 02:38:10;;;;;;;40.87;14.53;;;;;;;;;;3590421;40;20424;-61
2021/07/17 02:40:36;;;;;;;41.93;13.67;;;;;;;;;;3590451;40;20129;-61
2021/07/17 02:43:01;;;;;;;36.87;13.60;;;;;;;;;;3590327;40;20032;-61
2021/07/17 02:45:26;;;;;;;46.87;14.33;;;;;;;;;;3590330;40;20039;-61
2021/07/17 02:47:51;;;;;;;35.23;12.97;;;;;;;;;;3590183;40;20177;-61
2021/07/17 02:50:16;;;;;;;55.50;14.77;;;;;;;;;;3589439;39;20023;-61
2021/07/17 02:52:42;;;;;;;39.83;13.37;;;;;;;;;;3590461;40;20757;-61
2021/07/17 02:55:07;;;;;;;51.47;14.77;;;;;;;;;;3589979;40;20466;-61
2021/07/17 02:57:32;;;;;;;38.97;13.00;;;;;;;;;;3590492;39;20035;-61
2021/07/17 02:59:57;;;;;;;45.20;13.20;;;;;;;;;;3590132;39;20032;-61
2021/07/17 03:02:22;;;;;;;49.87;12.83;;;;;;;;;;3590098;40;20042;-61
2021/07/17 03:04:48;;;;;;;41.80;12.43;;;;;;;;;;3589808;40;20055;-61
2021/07/17 03:07:13;;;;;;;48.27;13.63;;;;;;;;;;3589466;40;20269;-61
2021/07/17 03:09:39;;;;;;;52.42;14.27;;;;;;;;;;3589928;39;20487;-61
2021/07/17 03:12:04;;;;;;;44.10;12.53;;;;;;;;;;3588911;39;20043;-61
2021/07/17 03:14:29;;;;;;;35.77;12.30;;;;;;;;;;3590058;39;20036;-61
2021/07/17 03:16:54;;;;;;;49.40;14.20;;;;;;;;;;3590076;39;20416;-61
2021/07/17 03:19:19;;;;;;;36.90;12.07;;;;;;;;;;3588784;40;20055;-61
2021/07/17 03:21:44;;;;;;;31.87;11.90;;;;;;;;;;3589392;39;20024;-61
2021/07/17 03:24:10;;;;;;;33.70;12.07;;;;;;;;;;3588677;40;20282;-61
2021/07/17 03:26:35;;;;;;;37.87;11.87;;;;;;;;;;3590586;40;20783;-61
2021/07/17 03:29:00;;;;;;;42.03;12.80;;;;;;;;;;3591041;40;20122;-61
2021/07/17 03:31:25;;;;;;;36.57;11.63;;;;;;;;;;3591143;40;20664;-61
2021/07/17 03:33:51;;;;;;;41.20;12.07;;;;;;;;;;3591468;39;20492;-61
2021/07/17 03:36:16;;;;;;;40.03;11.83;;;;;;;;;;3591707;39;20032;-61
2021/07/17 03:38:41;;;;;;;39.37;12.03;;;;;;;;;;3591324;40;20282;-61
2021/07/17 03:41:06;;;;;;;37.53;11.13;;;;;;;;;;3591036;39;20723;-61
2021/07/17 03:43:31;;;;;;;36.03;11.53;;;;;;;;;;3591213;40;20688;-61
2021/07/17 03:45:56;;;;;;;33.47;11.00;;;;;;;;;;3590186;40;20024;-61
2021/07/17 03:48:22;;;;;;;39.80;11.13;;;;;;;;;;3589041;40;20708;-61
2021/07/17 03:50:47;;;;;;;37.50;11.67;;;;;;;;;;3591285;40;20031;-61
2021/07/17 03:53:12;;;;;;;32.67;10.87;;;;;;;;;;3590803;40;20647;-61
2021/07/17 03:55:37;;;;;;;38.87;12.40;;;;;;;;;;3591046;39;20020;-61
2021/07/17 03:58:03;;;;;;;44.25;11.07;;;;;;;;;;3591168;39;20031;-61
2021/07/17 04:00:28;;;;;;;42.43;11.00;;;;;;;;;;3590763;39;20032;-61
2021/07/17 04:02:53;;;;;;;36.77;10.30;;;;;;;;;;3590779;39;20021;-61
2021/07/17 04:05:19;;;;;;;41.07;11.70;;;;;;;;;;3590411;39;20034;-61
2021/07/17 04:07:44;;;;;;;38.53;10.98;;;;;;;;;;3591095;40;20061;-61
2021/07/17 04:10:09;;;;;;;37.77;11.37;;;;;;;;;;3590591;40;20040;-61
2021/07/17 04:12:35;;;;;;;33.70;10.83;;;;;;;;;;3589513;40;20413;-61
2021/07/17 04:15:00;;;;;;;43.63;11.27;;;;;;;;;;3590948;39;20344;-61
2021/07/17 04:17:25;;;;;;;31.45;9.95;;;;;;;;;;3590672;39;20372;-61
2021/07/17 04:19:50;;;;;;;34.43;10.37;;;;;;;;;;3590408;40;20024;-61
2021/07/17 04:22:16;;;;;;;45.50;11.85;;;;;;;;;;3589409;40;20590;-61
2021/07/17 04:24:41;;;;;;;48.47;11.83;;;;;;;;;;3590804;40;20614;-61
2021/07/17 04:27:06;;;;;;;35.53;10.83;;;;;;;;;;3589855;39;20032;-61
2021/07/17 04:29:31;;;;;;;37.67;11.27;;;;;;;;;;3590400;39;20251;-61
2021/07/17 04:31:57;;;;;;;33.43;9.90;;;;;;;;;;3590867;40;20020;-61
2021/07/17 04:34:22;;;;;;;37.47;11.07;;;;;;;;;;3590025;40;20028;-61
2021/07/17 04:36:47;;;;;;;40.55;11.50;;;;;;;;;;3590943;40;20105;-61
2021/07/17 04:39:13;;;;;;;37.97;11.23;;;;;;;;;;3588848;40;20032;-61
2021/07/17 04:41:38;;;;;;;45.43;11.40;;;;;;;;;;3589571;40;20077;-61
2021/07/17 04:44:03;;;;;;;30.97;10.00;;;;;;;;;;3590624;40;20028;-61
2021/07/17 04:46:28;;;;;;;40.43;11.10;;;;;;;;;;3589946;39;20047;-61
2021/07/17 04:48:54;;;;;;;39.20;11.43;;;;;;;;;;3590041;40;20028;-61
2021/07/17 04:51:19;;;;;;;47.87;11.47;;;;;;;;;;3589965;39;20027;-61
2021/07/17 04:53:44;;;;;;;51.40;11.60;;;;;;;;;;3590028;39;20047;-61
2021/07/17 04:56:09;;;;;;;39.75;10.82;;;;;;;;;;3580404;40;20088;-61
2021/07/17 04:58:34;;;;;;;36.23;10.10;;;;;;;;;;3589793;40;20075;-61
2021/07/17 05:01:00;;;;;;;34.07;11.17;;;;;;;;;;3590594;40;20398;-61
2021/07/17 05:03:25;;;;;;;33.23;11.67;;;;;;;;;;3589570;40;20032;-61
2021/07/17 05:05:50;;;;;;;45.07;11.70;;;;;;;;;;3589266;40;20040;-61
2021/07/17 05:08:15;;;;;;;44.03;12.45;;;;;;;;;;3589756;39;20436;-61
2021/07/17 05:10:41;;;;;;;33.80;12.47;;;;;;;;;;3590194;40;20028;-61
2021/07/17 05:13:06;;;;;;;40.70;12.00;;;;;;;;;;3590018;40;20163;-61
2021/07/17 05:15:31;;;;;;;33.50;11.53;;;;;;;;;;3588945;40;20361;-61
2021/07/17 05:17:56;;;;;;;38.33;11.07;;;;;;;;;;3589723;40;20079;-61
2021/07/17 05:20:22;;;;;;;37.40;10.30;;;;;;;;;;3587726;40;20020;-61
2021/07/17 05:22:47;;;;;;;26.63;10.32;;;;;;;;;;3589855;40;20117;-61
2021/07/17 05:25:12;;;;;;;40.60;10.67;;;;;;;;;;3588181;40;20036;-61
2021/07/17 05:27:37;;;;;;;40.33;10.37;;;;;;;;;;3589301;39;20027;-61
2021/07/17 05:30:03;;;;;;;39.43;10.80;;;;;;;;;;3589799;40;20177;-61
2021/07/17 05:32:28;;;;;;;42.57;11.40;;;;;;;;;;3588188;40;20268;-61
2021/07/17 05:34:53;;;;;;;37.33;11.70;;;;;;;;;;3590045;40;20024;-61
2021/07/17 05:37:18;;;;;;;40.83;11.90;;;;;;;;;;3589006;40;20061;-61
2021/07/17 05:39:44;;;;;;;45.10;12.32;;;;;;;;;;3587802;40;20145;-61
2021/07/17 05:42:09;;;;;;;41.27;11.43;;;;;;;;;;3588998;39;20040;-61
2021/07/17 05:44:34;;;;;;;47.80;12.37;;;;;;;;;;3591187;40;20036;-61
2021/07/17 05:46:59;;;;;;;39.63;12.20;;;;;;;;;;3590457;39;20370;-61
2021/07/17 05:49:24;;;;;;;36.70;11.97;;;;;;;;;;3587142;40;20039;-61
2021/07/17 05:51:49;;;;;;;34.97;11.47;;;;;;;;;;3591349;40;20036;-61
2021/07/17 05:54:15;;;;;;;44.60;12.27;;;;;;;;;;3590652;40;20024;-61
2021/07/17 05:56:40;;;;;;;31.73;10.73;;;;;;;;;;3591088;40;20069;-61
2021/07/17 05:59:05;;;;;;;31.17;10.93;;;;;;;;;;3591078;40;20074;-61
2021/07/17 06:01:30;;;;;;;45.90;13.20;;;;;;;;;;3589619;40;20032;-60
2021/07/17 06:03:55;;;;;;;34.50;10.63;;;;;;;;;;3590684;40;20035;-61
2021/07/17 06:06:21;;;;;;;31.37;10.60;;;;;;;;;;3590691;39;20421;-61
2021/07/17 06:08:46;;;;;;;43.60;12.63;;;;;;;;;;3590620;39;20092;-61
2021/07/17 06:11:11;;;;;;;27.83;10.43;;;;;;;;;;3590272;39;20035;-61
2021/07/17 06:13:36;;;;;;;36.77;10.60;;;;;;;;;;3589345;40;20079;-61
2021/07/17 06:16:01;;;;;;;34.27;11.00;;;;;;;;;;3590843;40;20412;-61
2021/07/17 06:18:26;;;;;;;32.27;11.40;;;;;;;;;;3590626;40;20046;-61
2021/07/17 06:20:52;;;;;;;26.70;9.57;;;;;;;;;;3591030;40;20785;-61
2021/07/17 06:23:17;;;;;;;32.60;10.80;;;;;;;;;;3590726;40;20025;-61
2021/07/17 06:25:42;;;;;;;42.03;11.97;;;;;;;;;;3590379;40;20028;-61
2021/07/17 06:28:07;;;;;;;36.90;11.32;;;;;;;;;;3590500;40;20020;-61
2021/07/17 06:30:32;;;;;;;30.57;9.60;;;;;;;;;;3590170;40;20028;-61
2021/07/17 06:32:58;;;;;;;28.83;10.63;;;;;;;;;;3589704;40;20040;-61
2021/07/17 06:35:23;;;;;;;32.03;10.47;;;;;;;;;;3590336;40;20042;-61
2021/07/17 06:37:48;;;;;;;39.13;12.70;;;;;;;;;;3589589;39;20034;-61
2021/07/17 06:40:13;;;;;;;35.47;11.20;;;;;;;;;;3589896;40;20257;-61
2021/07/17 06:42:39;;;;;;;34.00;12.13;;;;;;;;;;3589388;40;20032;-61
2021/07/17 06:45:04;;;;;;;39.87;11.97;;;;;;;;;;3589528;40;20043;-61
2021/07/17 06:47:29;;;;;;;31.43;11.60;;;;;;;;;;3589888;39;20129;-61
2021/07/17 06:49:54;;;;;;;35.57;12.40;;;;;;;;;;3589747;40;20036;-61
2021/07/17 06:52:19;;;;;;;28.23;11.47;;;;;;;;;;3589739;39;20507;-61
2021/07/17 06:54:44;;;;;;;30.47;12.67;;;;;;;;;;3589854;39;20650;-61
2021/07/17 06:57:10;;;;;;;26.93;11.77;;;;;;;;;;3588189;40;20402;-61
2021/07/17 06:59:35;;;;;;;31.37;11.10;;;;;;;;;;3589913;39;20024;-61
2021/07/17 07:02:00;;;;;;;27.73;13.47;;;;;;;;;;3589687;39;20270;-61
2021/07/17 07:04:26;;;;;;;31.97;12.73;;;;;;;;;;3589363;39;20027;-61
2021/07/17 07:06:51;;;;;;;32.55;12.70;;;;;;;;;;3590007;39;20111;-61
2021/07/17 07:09:16;;;;;;;33.55;13.98;;;;;;;;;;3588393;40;20028;-61
2021/07/17 07:11:42;;;;;;;35.53;13.63;;;;;;;;;;3590628;39;20055;-61
2021/07/17 07:14:07;;;;;;;35.87;14.00;;;;;;;;;;3590366;39;20028;-61
2021/07/17 07:16:32;;;;;;;27.85;12.35;;;;;;;;;;3589163;40;20032;-61
2021/07/17 07:18:58;;;;;;;35.77;14.20;;;;;;;;;;3589719;40;20047;-61
2021/07/17 07:21:23;;;;;;;36.47;14.00;;;;;;;;;;3590682;40;20332;-61
2021/07/17 07:23:48;;;;;;;35.43;14.73;;;;;;;;;;3590008;40;20741;-61
2021/07/17 07:26:13;;;;;;;36.17;14.10;;;;;;;;;;3591085;40;20328;-61
2021/07/17 07:28:39;;;;;;;34.07;14.27;;;;;;;;;;3591744;40;20091;-61
2021/07/17 07:31:04;;;;;;;30.70;13.30;;;;;;;;;;3590650;40;20409;-61
2021/07/17 07:33:29;;;;;;;30.80;13.63;;;;;;;;;;3591365;40;20239;-61
2021/07/17 07:35:54;;;;;;;34.80;15.03;;;;;;;;;;3591186;39;20040;-61
2021/07/17 07:38:19;;;;;;;29.10;13.10;;;;;;;;;;3590087;40;20266;-61
2021/07/17 07:40:45;;;;;;;34.73;14.83;;;;;;;;;;3590527;40;20247;-61
2021/07/17 07:43:10;;;;;;;28.33;12.70;;;;;;;;;;3590853;40;20016;-61
2021/07/17 07:45:35;;;;;;;30.67;13.27;;;;;;;;;;3590604;39;20025;-61
2021/07/17 07:48:01;;;;;;;30.43;13.77;;;;;;;;;;3591378;40;20028;-61
2021/07/17 07:50:26;;;;;;;45.37;15.47;;;;;;;;;;3590463;40;20504;-61
2021/07/17 07:52:51;;;;;;;36.73;14.30;;;;;;;;;;3591095;39;20031;-61
2021/07/17 07:55:17;;;;;;;28.10;13.97;;;;;;;;;;3590773;40;20032;-61
2021/07/17 07:57:42;;;;;;;27.45;12.93;;;;;;;;;;3591134;40;20250;-61
2021/07/17 08:00:07;;;;;;;38.97;14.63;;;;;;;;;;3590642;40;20390;-61
2021/07/17 08:02:35;;;;;;;30.60;14.85;;;;;;;;;;3590486;40;20052;-61
2021/07/17 08:05:01;;;;;;;24.73;13.13;;;;;;;;;;3590874;39;20031;-61
2021/07/17 08:07:26;;;;;;;30.27;13.37;;;;;;;;;;3590734;40;20729;-61
2021/07/17 08:09:51;;;;;;;27.80;13.27;;;;;;;;;;3591310;39;20735;-63
2021/07/17 08:12:16;;;;;;;29.40;13.03;;;;;;;;;;3590877;40;20114;-69
2021/07/17 08:14:41;;;;;;;31.00;13.73;;;;;;;;;;3590883;39;20025;-69
2021/07/17 08:17:08;;;;;;;27.38;14.52;;;;;;;;;;3590856;40;20298;-70
2021/07/17 08:19:34;;;;;;;47.40;22.48;;;;;;;;;;3589527;39;20032;-70
2021/07/17 08:21:59;;;;;;;40.97;19.30;;;;;;;;;;3588286;40;20028;-70
2021/07/17 08:24:24;;;;;;;26.83;12.95;;;;;;;;;;3589548;40;20481;-70
2021/07/17 08:26:49;;;;;;;29.67;14.07;;;;;;;;;;3589466;39;20040;-74
2021/07/17 08:29:15;;;;;;;21.65;12.48;;;;;;;;;;3589805;40;20032;-70
2021/07/17 08:31:40;;;;;;;26.53;13.43;;;;;;;;;;3588527;40;20926;-69
2021/07/17 08:34:05;;;;;;;27.70;14.43;;;;;;;;;;3590181;39;20812;-70
2021/07/17 08:36:31;;;;;;;28.13;13.83;;;;;;;;;;3588257;40;20685;-70
2021/07/17 08:38:56;;;;;;;24.53;13.97;;;;;;;;;;3589667;40;20043;-70
2021/07/17 08:41:21;;;;;;;26.60;13.50;;;;;;;;;;3588319;40;20039;-67
2021/07/17 08:43:46;;;;;;;30.70;14.67;;;;;;;;;;3588913;39;20535;-69
2021/07/17 08:46:11;;;;;;;24.63;13.40;;;;;;;;;;3590324;39;20343;-69
2021/07/17 08:48:37;;;;;;;31.10;14.00;;;;;;;;;;3589922;39;20028;-69
2021/07/17 08:51:02;;;;;;;35.08;13.82;;;;;;;;;;3590549;39;20593;-69
2021/07/17 08:53:27;;;;;;;28.67;13.57;;;;;;;;;;3589894;40;20024;-70
2021/07/17 08:55:52;;;;;;;28.60;13.03;;;;;;;;;;3590000;39;20059;-70
2021/07/17 08:58:18;;;;;;;33.90;13.43;;;;;;;;;;3590043;39;20583;-69
2021/07/17 09:00:43;;;;;;;33.50;14.37;;;;;;;;;;3589611;40;20020;-70
2021/07/17 09:03:08;;;;;;;25.63;12.53;;;;;;;;;;3590266;39;20039;-68
2021/07/17 09:05:35;;;;;;;28.23;14.83;;;;;;;;;;3589959;39;20072;-70
2021/07/17 09:08:01;;;;;;;23.40;11.60;;;;;;;;;;3589986;39;20021;-70
2021/07/17 09:10:26;;;;;;;27.27;12.87;;;;;;;;;;3588870;40;20040;-70
2021/07/17 09:12:51;;;;;;;26.47;12.33;;;;;;;;;;3588976;40;20036;-70
2021/07/17 09:15:16;;;;;;;22.70;12.83;;;;;;;;;;3590077;39;20372;-70
2021/07/17 09:17:42;;;;;;;31.07;16.00;;;;;;;;;;3590772;40;20020;-69
2021/07/17 09:20:07;;;;;;;22.90;12.83;;;;;;;;;;3591208;39;20298;-69
2021/07/17 09:22:32;;;;;;;30.27;18.90;;;;;;;;;;3590674;39;20039;-69
2021/07/17 09:24:57;;;;;;;20.50;11.90;;;;;;;;;;3590873;40;20032;-69
2021/07/17 09:27:22;;;;;;;46.03;24.50;;;;;;;;;;3591326;40;20945;-69
2021/07/17 09:29:49;;;;;;;25.10;12.97;;;;;;;;;;3590725;40;20465;-69
2021/07/17 09:32:14;;;;;;;22.80;12.80;;;;;;;;;;3590783;40;20124;-68
2021/07/17 09:34:40;;;;;;;22.70;12.33;;;;;;;;;;3592275;39;20044;-69
2021/07/17 09:37:07;;;;;;;18.03;12.77;;;;;;;;;;3592131;40;20028;-69
2021/07/17 09:39:32;;;;;;;22.92;12.73;;;;;;;;;;3591355;39;20032;-69
2021/07/17 09:41:57;;;;;;;19.47;12.47;;;;;;;;;;3591736;39;20097;-68
2021/07/17 09:44:23;;;;;;;17.83;12.47;;;;;;;;;;3591514;39;20250;-69
2021/07/17 09:46:48;;;;;;;18.87;12.17;;;;;;;;;;3591820;39;20032;-69
2021/07/17 09:49:13;;;;;;;21.80;11.40;;;;;;;;;;3592323;40;20266;-69
2021/07/17 09:51:39;;;;;;;18.00;12.83;;;;;;;;;;3591236;40;20043;-68
2021/07/17 09:54:06;;;;;;;17.85;12.40;;;;;;;;;;3591558;39;20188;-68
2021/07/17 09:56:35;;;;;;;15.18;11.98;;;;;;;;;;3589970;40;20413;-68
2021/07/17 09:59:00;;;;;;;19.50;11.25;;;;;;;;;;3590802;39;20076;-68
2021/07/17 10:01:26;;;;;;;20.60;11.57;;;;;;;;;;3590913;39;20428;-68
2021/07/17 10:03:51;;;;;;;21.13;14.13;;;;;;;;;;3590764;39;20101;-68
2021/07/17 10:06:16;;;;;;;17.13;12.10;;;;;;;;;;3589673;40;20036;-68
2021/07/17 10:08:41;;;;;;;31.00;17.00;;;;;;;;;;3590386;40;20028;-68
2021/07/17 10:11:14;;;;;;;16.53;12.20;;;;;;;;;;3590595;40;20032;-68
2021/07/17 10:13:39;;;;;;;29.65;16.00;;;;;;;;;;3590605;40;20563;-68
2021/07/17 10:16:04;;;;;;;16.77;11.98;;;;;;;;;;3590478;39;20043;-68
2021/07/17 10:18:29;;;;;;;24.47;16.17;;;;;;;;;;3590672;39;20032;-68
2021/07/17 10:20:55;;;;;;;23.37;12.30;;;;;;;;;;3589252;40;20043;-68
2021/07/17 10:23:20;;;;;;;23.43;11.83;;;;;;;;;;3589275;40;20028;-68
2021/07/17 10:25:45;;;;;;;17.70;11.87;;;;;;;;;;3590569;40;20644;-68
2021/07/17 10:28:10;;;;;;;19.37;12.07;;;;;;;;;;3590287;39;20279;-68
2021/07/17 10:30:35;;;;;;;15.40;10.70;;;;;;;;;;3590446;40;20024;-68
2021/07/17 10:33:01;;;;;;;18.43;11.70;;;;;;;;;;3591299;40;20028;-68
2021/07/17 10:35:26;;;;;;;19.10;13.40;;;;;;;;;;3589889;40;20089;-68
2021/07/17 10:37:51;;;;;;;16.07;11.20;;;;;;;;;;3590369;39;20040;-69
2021/07/17 10:40:17;;;;;;;16.83;11.37;;;;;;;;;;3590704;40;20039;-68
2021/07/17 10:42:42;;;;;;;20.80;12.48;;;;;;;;;;3590032;39;20377;-70
2021/07/17 10:45:08;;;;;;;15.13;9.90;;;;;;;;;;3590460;40;20120;-68
2021/07/17 10:47:33;;;;;;;17.35;11.77;;;;;;;;;;3590321;40;20020;-68
2021/07/17 10:49:58;;;;;;;13.98;10.60;;;;;;;;;;3588813;40;20051;-68
2021/07/17 10:52:23;;;;;;;22.67;12.10;;;;;;;;;;3590656;39;20028;-68
2021/07/17 10:54:48;;;;;;;13.63;9.47;;;;;;;;;;3589063;40;20268;-68
2021/07/17 10:57:14;;;;;;;18.13;10.57;;;;;;;;;;3590404;40;20076;-69
2021/07/17 10:59:39;;;;;;;18.57;11.07;;;;;;;;;;3589645;40;20392;-68
2021/07/17 11:02:04;;;;;;;14.13;10.23;;;;;;;;;;3590483;39;20877;-68
2021/07/17 11:04:30;;;;;;;21.98;10.43;;;;;;;;;;3589831;39;20131;-68
2021/07/17 11:06:55;;;;;;;18.33;12.13;;;;;;;;;;3588815;40;20040;-68
2021/07/17 11:09:20;;;;;;;24.60;17.47;;;;;;;;;;3590103;40;20039;-61
2021/07/17 11:11:45;;;;;;;20.23;10.70;;;;;;;;;;3590064;39;20056;-61
2021/07/17 11:14:10;;;;;;;22.83;12.03;;;;;;;;;;3589633;40;20081;-61
2021/07/17 11:16:36;;;;;;;18.23;9.90;;;;;;;;;;3589780;39;20024;-61
2021/07/17 11:19:01;;;;;;;16.97;10.37;;;;;;;;;;3590132;40;20258;-61
2021/07/17 11:21:26;;;;;;;16.00;10.63;;;;;;;;;;3590506;40;20799;-61
2021/07/17 11:23:51;;;;;;;18.93;10.67;;;;;;;;;;3590169;40;20028;-60
2021/07/17 11:26:18;;;;;;;15.47;10.40;;;;;;;;;;3590661;39;20036;-61
2021/07/17 11:28:44;;;;;;;16.13;11.10;;;;;;;;;;3589548;39;20522;-61
2021/07/17 11:31:09;;;;;;;13.40;10.00;;;;;;;;;;3589636;40;20035;-60
2021/07/17 11:33:34;;;;;;;16.47;10.53;;;;;;;;;;3589986;40;20032;-61
2021/07/17 11:35:59;;;;;;;12.40;9.90;;;;;;;;;;3589879;40;20036;-61
2021/07/17 11:38:25;;;;;;;15.67;10.03;;;;;;;;;;3589438;39;20035;-61
2021/07/17 11:40:50;;;;;;;14.83;10.10;;;;;;;;;;3589120;39;20258;-61
2021/07/17 11:43:15;;;;;;;17.77;10.47;;;;;;;;;;3589967;40;20032;-61
2021/07/17 11:45:40;;;;;;;14.90;10.43;;;;;;;;;;3590326;40;20028;-61
2021/07/17 11:48:06;;;;;;;14.27;9.20;;;;;;;;;;3589332;40;20062;-61
2021/07/17 11:50:31;;;;;;;12.03;9.40;;;;;;;;;;3590622;40;20128;-61
2021/07/17 11:52:56;;;;;;;11.50;9.10;;;;;;;;;;3589374;40;20028;-61
2021/07/17 11:55:21;;;;;;;16.80;8.90;;;;;;;;;;3590280;40;20408;-62
2021/07/17 11:57:48;;;;;;;13.43;9.83;;;;;;;;;;3588495;40;20280;-62
2021/07/17 12:00:17;;;;;;;15.02;10.75;;;;;;;;;;3590379;39;20036;-63
2021/07/17 12:02:42;;;;;;;17.25;13.02;;;;;;;;;;3590601;39;20024;-63
2021/07/17 12:05:08;;;;;;;15.27;8.93;;;;;;;;;;3590846;39;20432;-62
2021/07/17 12:07:33;;;;;;;11.60;8.43;;;;;;;;;;3591206;40;20036;-62
2021/07/17 12:09:58;;;;;;;16.87;10.27;;;;;;;;;;3590989;40;20838;-62
2021/07/17 12:12:23;;;;;;;15.20;8.63;;;;;;;;;;3591188;39;20086;-62
2021/07/17 12:14:49;;;;;;;14.83;11.70;;;;;;;;;;3591406;40;20392;-63
2021/07/17 12:17:14;;;;;;;14.37;9.60;;;;;;;;;;3590346;40;20031;-62
2021/07/17 12:19:40;;;;;;;11.30;9.23;;;;;;;;;;3590689;40;20043;-62
2021/07/17 12:22:05;;;;;;;11.75;8.90;;;;;;;;;;3589822;40;20075;-61
2021/07/17 12:24:31;;;;;;;11.63;8.70;;;;;;;;;;3591033;40;20489;-61
2021/07/17 12:26:56;;;;;;;15.30;8.97;;;;;;;;;;3589378;40;20262;-61
2021/07/17 12:29:21;;;;;;;11.83;8.77;;;;;;;;;;3590985;40;20031;-61
2021/07/17 12:31:46;;;;;;;13.97;8.43;;;;;;;;;;3589577;40;20024;-61
2021/07/17 12:34:11;;;;;;;12.17;8.53;;;;;;;;;;3590961;40;20599;-60
2021/07/17 12:36:36;;;;;;;15.23;8.83;;;;;;;;;;3591968;40;20040;-61
2021/07/17 12:39:02;;;;;;;14.43;8.90;;;;;;;;;;3591038;40;20146;-60
2021/07/17 12:41:28;;;;;;;17.42;10.50;;;;;;;;;;3588281;39;20056;-61
2021/07/17 12:43:53;;;;;;;11.57;8.27;;;;;;;;;;3590367;39;20068;-61
2021/07/17 12:46:18;;;;;;;14.47;10.43;;;;;;;;;;3590676;40;20036;-61
2021/07/17 12:48:44;;;;;;;13.83;8.30;;;;;;;;;;3590245;40;20044;-61
2021/07/17 12:51:09;;;;;;;14.67;8.53;;;;;;;;;;3590813;40;20273;-61
2021/07/17 12:53:34;;;;;;;13.80;8.10;;;;;;;;;;3590889;40;20032;-61
2021/07/17 12:55:59;;;;;;;14.33;9.10;;;;;;;;;;3590548;40;20032;-61
2021/07/17 12:58:25;;;;;;;9.90;8.07;;;;;;;;;;3590639;40;20025;-60
2021/07/17 13:00:50;;;;;;;12.07;8.10;;;;;;;;;;3590529;40;20382;-60
2021/07/17 13:03:15;;;;;;;15.50;8.82;;;;;;;;;;3590413;39;20031;-60
2021/07/17 13:05:40;;;;;;;11.53;7.80;;;;;;;;;;3590879;40;20759;-61
2021/07/17 13:08:06;;;;;;;13.70;7.77;;;;;;;;;;3590243;40;20610;-61
2021/07/17 13:10:31;;;;;;;8.87;7.47;;;;;;;;;;3590147;40;20412;-61
2021/07/17 13:12:56;;;;;;;11.87;8.10;;;;;;;;;;3590073;40;20040;-62
2021/07/17 13:15:21;;;;;;;15.87;7.60;;;;;;;;;;3590475;40;20028;-61
2021/07/17 13:17:47;;;;;;;11.50;7.50;;;;;;;;;;3590287;40;20090;-60
2021/07/17 13:20:12;;;;;;;11.88;7.20;;;;;;;;;;3580085;40;20053;-61
2021/07/17 13:22:37;;;;;;;8.93;7.33;;;;;;;;;;3590330;40;20354;-61
2021/07/17 13:25:03;;;;;;;14.03;9.67;;;;;;;;;;3589925;40;20032;-61
2021/07/17 13:27:28;;;;;;;11.43;7.53;;;;;;;;;;3588730;40;20039;-61
2021/07/17 13:29:53;;;;;;;13.83;8.23;;;;;;;;;;3590137;40;20020;-60
2021/07/17 13:32:18;;;;;;;17.77;7.80;;;;;;;;;;3589214;40;20056;-61
2021/07/17 13:34:44;;;;;;;14.77;9.23;;;;;;;;;;3589902;40;20036;-61
2021/07/17 13:37:09;;;;;;;13.03;7.53;;;;;;;;;;3590333;40;20113;-61
2021/07/17 13:39:34;;;;;;;9.90;7.83;;;;;;;;;;3589911;40;20072;-61
2021/07/17 13:41:59;;;;;;;10.87;7.43;;;;;;;;;;3589593;40;20241;-61
2021/07/17 13:44:24;;;;;;;9.70;7.20;;;;;;;;;;3590092;40;20044;-61
2021/07/17 13:46:49;;;;;;;11.73;6.87;;;;;;;;;;3589303;40;20311;-61
2021/07/17 13:49:15;;;;;;;11.63;6.97;;;;;;;;;;3588991;40;20699;-61
2021/07/17 13:51:41;;;;;;;7.97;6.80;;;;;;;;;;3589322;40;20028;-61
2021/07/17 13:54:06;;;;;;;15.03;7.13;;;;;;;;;;3590600;40;20243;-62
2021/07/17 13:56:32;;;;;;;9.43;6.33;;;;;;;;;;3589799;40;20059;-61
2021/07/17 13:58:58;;;;;;;7.65;6.43;;;;;;;;;;3588637;40;20028;-61
2021/07/17 14:01:23;;;;;;;11.60;7.10;;;;;;;;;;3590260;39;20419;-61
2021/07/17 14:03:49;;;;;;;11.90;7.43;;;;;;;;;;3581179;40;20287;-61
2021/07/17 14:06:15;;;;;;;12.03;7.37;;;;;;;;;;3590754;40;20087;-61